Stations météo

Publicité
Formigueres, France (7737): Température de l'air & dewpoint: 11.02.2019 17:00:00 - 17.02.2019 17:00:00 (CET)Formigueres, France (7737): Vitesse du vent & gusts: 11.02.2019 17:00:00 - 17.02.2019 17:00:00 (CET)Formigueres, France (7737): Direction du vent: 11.02.2019 17:00:00 - 17.02.2019 17:00:00 (CET)Formigueres, France (7737): Quantités de précipitations: 11.02.2019 17:00:00 - 17.02.2019 17:00:00 (CET)
Date & Time tt [°C] td [°C] ff [km/h] ff [knt] fx [km/h] fx [knt] dd rr [mm]
17.02.2019 17:00:00 10,3 -10,0 21 11 37 20 S 0,0
17.02.2019 16:00:00 11,4 -10,8 22 12 41 22 S 0,0
17.02.2019 15:00:00 11,9 -12,4 21 11 41 22 S 0,0
17.02.2019 14:00:00 12,1 -13,8 21 11 39 21 S 0,0
17.02.2019 13:00:00 11,9 -15,7 21 11 37 20 SSW -
17.02.2019 12:00:00 11,5 -16,0 22 12 41 22 S 0,0
17.02.2019 11:00:00 11,0 -13,2 15 8 35 19 S 0,0
17.02.2019 10:00:00 9,0 -14,1 13 7 31 17 S 0,0
17.02.2019 09:00:00 6,9 -15,8 8 4 24 13 S 0,0
17.02.2019 08:00:00 4,4 -16,7 8 4 29 16 WSW 0,0
17.02.2019 07:00:00 3,2 -14,0 22 12 35 19 S -
17.02.2019 06:00:00 0,8 -13,0 13 7 22 12 S 0,0
17.02.2019 05:00:00 1,9 -12,7 15 8 29 16 S 0,0
17.02.2019 04:00:00 2,9 -12,2 22 12 35 19 S 0,0
17.02.2019 03:00:00 3,8 -13,1 18 10 34 18 SSW 0,0
17.02.2019 02:00:00 3,3 -12,7 18 10 29 16 SSW 0,0
17.02.2019 01:00:00 3,2 -12,3 18 10 29 16 S -
17.02.2019 00:00:00 3,3 -11,9 15 8 29 16 S 0,0
16.02.2019 23:00:00 5,2 -12,8 18 10 29 16 SSW 0,0
16.02.2019 22:00:00 3,3 -11,5 8 4 22 12 SE 0,0
16.02.2019 21:00:00 3,3 -10,7 13 7 26 14 SSE 0,0
16.02.2019 20:00:00 4,4 -10,9 18 10 28 15 S 0,0
16.02.2019 19:00:00 5,9 -10,0 15 8 22 12 SSW -
16.02.2019 18:00:00 7,0 -9,4 13 7 28 15 S 0,0
16.02.2019 17:00:00 11,0 -11,1 15 8 28 15 SSW 0,0
16.02.2019 16:00:00 11,6 -13,4 18 10 34 18 SSW 0,0
16.02.2019 15:00:00 11,9 -14,0 21 11 39 21 SSW 0,0
16.02.2019 14:00:00 12,0 -17,6 18 10 37 20 SSW 0,0
16.02.2019 13:00:00 11,7 -19,0 18 10 39 21 SSW -
16.02.2019 12:00:00 11,1 -18,3 22 12 37 20 S 0,0
16.02.2019 11:00:00 10,5 -15,1 16 9 31 17 S 0,0
16.02.2019 10:00:00 7,8 -13,2 13 7 26 14 SSE 0,0
16.02.2019 09:00:00 3,5 -14,2 5 3 28 15 SSW 0,0
16.02.2019 08:00:00 0,1 -12,6 21 11 28 15 WSW 0,0
16.02.2019 07:00:00 0,7 -12,0 21 11 26 14 WSW -
16.02.2019 06:00:00 1,5 -12,0 16 9 24 13 WSW 0,0
16.02.2019 05:00:00 1,5 -12,7 16 9 26 14 WSW 0,0
16.02.2019 04:00:00 1,6 -12,6 13 7 26 14 WSW 0,0
16.02.2019 03:00:00 0,3 -10,0 9 5 21 11 WSW 0,0
16.02.2019 02:00:00 -0,4 -9,6 8 4 22 12 WSW 0,0
16.02.2019 01:00:00 0,8 -8,7 13 7 24 13 WSW -
16.02.2019 00:00:00 0,5 -8,7 13 7 24 13 WSW 0,0
15.02.2019 23:00:00 1,4 -8,4 13 7 24 13 WSW 0,0
15.02.2019 22:00:00 0,4 -8,8 9 5 26 14 WSW 0,0
15.02.2019 21:00:00 1,3 -8,3 13 7 24 13 WSW 0,0
15.02.2019 20:00:00 3,1 -8,0 18 10 24 13 WSW 0,0
15.02.2019 19:00:00 3,9 -7,6 16 9 26 14 WSW -
15.02.2019 18:00:00 7,6 -8,9 11 6 18 10 WSW 0,0
15.02.2019 17:00:00 13,0 -13,1 8 4 28 15 S 0,0
15.02.2019 16:00:00 13,2 -13,8 15 8 34 18 S 0,0
15.02.2019 15:00:00 13,1 -14,8 21 11 37 20 S 0,0
15.02.2019 14:00:00 13,3 -17,8 22 12 34 18 S 0,0
15.02.2019 13:00:00 13,4 -17,7 21 11 34 18 S -
15.02.2019 12:00:00 12,3 -12,9 13 7 31 17 S 0,0
15.02.2019 11:00:00 11,5 -13,5 13 7 28 15 SSE 0,0
15.02.2019 10:00:00 9,6 -16,7 13 7 24 13 S 0,0
15.02.2019 09:00:00 6,0 -17,3 8 4 22 12 WSW 0,0
15.02.2019 08:00:00 2,3 -14,8 16 9 22 12 WSW 0,0
15.02.2019 07:00:00 2,7 -17,0 9 5 22 12 SW -
15.02.2019 06:00:00 2,1 -12,2 15 8 24 13 WSW 0,0
15.02.2019 05:00:00 1,1 -10,7 16 9 26 14 WSW 0,0
15.02.2019 04:00:00 1,1 -10,1 18 10 26 14 WSW 0,0
15.02.2019 03:00:00 0,8 -9,3 18 10 28 15 WSW 0,0
15.02.2019 02:00:00 0,1 -8,9 18 10 24 13 W 0,0
15.02.2019 01:00:00 0,6 -8,6 16 9 22 12 WSW -
15.02.2019 00:00:00 0,4 -8,8 18 10 24 13 W 0,0
14.02.2019 23:00:00 1,2 -9,2 16 9 24 13 WSW 0,0
14.02.2019 22:00:00 0,5 -9,0 18 10 26 14 WSW 0,0
14.02.2019 21:00:00 0,7 -9,3 18 10 26 14 W 0,0
14.02.2019 20:00:00 2,1 -9,2 18 10 22 12 WSW 0,0
14.02.2019 19:00:00 3,5 -9,2 15 8 18 10 W -
14.02.2019 18:00:00 6,1 -10,6 13 7 29 16 S 0,0
14.02.2019 17:00:00 9,2 -11,5 16 9 41 22 S 0,0
14.02.2019 16:00:00 10,3 -13,7 21 11 41 22 S 0,0
14.02.2019 15:00:00 10,9 -15,6 24 13 44 24 S 0,0
14.02.2019 14:00:00 10,7 -17,6 26 14 50 27 S 0,0
14.02.2019 13:00:00 10,4 -18,9 26 14 50 27 S -
14.02.2019 12:00:00 9,3 -16,9 31 17 52 28 S 0,0
14.02.2019 11:00:00 8,0 -17,1 34 18 48 26 S 0,0
14.02.2019 10:00:00 6,8 -19,8 26 14 44 24 S 0,0
14.02.2019 09:00:00 5,4 -21,8 4 2 22 12 NNE 0,0
14.02.2019 08:00:00 4,1 -21,1 13 7 42 23 SW 0,0
14.02.2019 07:00:00 2,1 -15,5 13 7 35 19 SSW -
14.02.2019 06:00:00 2,9 -14,8 16 9 31 17 SSW 0,0
14.02.2019 05:00:00 3,3 -14,0 9 5 28 15 SSW 0,0
14.02.2019 04:00:00 4,4 -12,6 15 8 31 17 S 0,0
14.02.2019 03:00:00 4,2 -9,6 18 10 34 18 S 0,0
14.02.2019 02:00:00 4,0 -10,5 18 10 28 15 SSW 0,0
14.02.2019 01:00:00 3,6 -11,2 15 8 24 13 SSW -
14.02.2019 00:00:00 1,8 -8,3 11 6 22 12 SW 0,0
13.02.2019 23:00:00 1,3 -9,1 13 7 26 14 WSW 0,0
13.02.2019 22:00:00 0,5 -8,7 18 10 26 14 WSW 0,0
13.02.2019 21:00:00 0,7 -8,6 18 10 26 14 WSW 0,0
13.02.2019 20:00:00 1,9 -8,8 18 10 24 13 WSW 0,0
13.02.2019 19:00:00 3,9 -9,2 13 7 21 11 WSW -
13.02.2019 18:00:00 6,5 -9,4 16 9 26 14 S 0,0
13.02.2019 17:00:00 10,0 -9,2 13 7 34 18 S 0,0
13.02.2019 16:00:00 11,4 -13,6 16 9 34 18 S 0,0
13.02.2019 15:00:00 11,8 -11,8 18 10 31 17 S 0,0
13.02.2019 14:00:00 12,4 -15,3 18 10 28 15 SSW 0,0
13.02.2019 13:00:00 12,4 -12,0 8 4 18 10 SSE -
13.02.2019 12:00:00 10,1 -11,9 9 5 16 9 SE 0,0
13.02.2019 11:00:00 5,2 -11,0 2 1 5 3 NNW 0,0
13.02.2019 10:00:00 1,3 -12,2 4 2 11 6 S 0,0
13.02.2019 09:00:00 -1,4 -16,8 4 2 22 12 SSW 0,0
13.02.2019 08:00:00 -3,7 -16,6 13 7 26 14 WSW 0,0
13.02.2019 07:00:00 -5,1 -16,9 8 4 21 11 WSW -
13.02.2019 06:00:00 -4,4 -16,3 11 6 22 12 WSW 0,0
13.02.2019 05:00:00 -5,2 -17,7 8 4 21 11 SW 0,0
13.02.2019 04:00:00 -4,1 -16,7 11 6 22 12 WSW 0,0
13.02.2019 03:00:00 -3,7 -16,3 15 8 24 13 WSW 0,0
13.02.2019 02:00:00 -4,0 -15,6 11 6 21 11 WSW 0,0
13.02.2019 01:00:00 -3,6 -15,3 13 7 21 11 WSW -
13.02.2019 00:00:00 -3,6 -14,7 11 6 16 9 WSW 0,0
12.02.2019 23:00:00 -3,4 -13,7 11 6 16 9 WSW 0,0
12.02.2019 22:00:00 -2,9 -12,1 9 5 16 9 WSW 0,0
12.02.2019 21:00:00 -2,1 -10,9 11 6 18 10 WSW 0,0
12.02.2019 20:00:00 -1,4 -9,8 13 7 18 10 W 0,0
12.02.2019 19:00:00 -0,6 -9,8 13 7 21 11 W -
12.02.2019 18:00:00 2,4 -8,1 9 5 26 14 WSW 0,0
12.02.2019 17:00:00 5,2 -4,4 18 10 29 16 N 0,0
12.02.2019 16:00:00 6,9 -10,4 15 8 26 14 NNE 0,0
12.02.2019 15:00:00 7,0 -8,2 11 6 26 14 NNE 0,0
12.02.2019 14:00:00 6,3 -8,1 11 6 21 11 NE 0,0
12.02.2019 13:00:00 6,5 -8,6 4 2 24 13 ESE -
12.02.2019 12:00:00 4,5 -12,5 11 6 29 16 NNE 0,0
12.02.2019 11:00:00 2,1 -12,5 8 4 18 10 N 0,0
12.02.2019 10:00:00 -2,6 -9,3 4 2 11 6 S 0,0
12.02.2019 09:00:00 -4,3 -9,5 4 2 16 9 S 0,0
12.02.2019 08:00:00 -6,5 -10,4 9 5 24 13 WSW 0,0
12.02.2019 07:00:00 -4,8 -8,6 11 6 24 13 W -
12.02.2019 06:00:00 -3,8 -6,9 13 7 35 19 WSW 0,0
12.02.2019 05:00:00 -2,9 -4,8 28 15 42 23 NNW 0,0
12.02.2019 04:00:00 -2,6 -3,6 16 9 35 19 N 0,0
12.02.2019 03:00:00 -2,4 -4,0 21 11 28 15 NNW 0,0
12.02.2019 02:00:00 -2,0 -3,7 15 8 29 16 N 0,0
12.02.2019 01:00:00 -2,1 -4,8 13 7 37 20 N -
12.02.2019 00:00:00 -2,1 -3,8 8 4 52 28 NNW 0,0
11.02.2019 23:00:00 -2,2 -3,2 29 16 54 29 NNE 0,2
11.02.2019 22:00:00 -1,9 -3,0 28 15 48 26 NNE 0,0
11.02.2019 21:00:00 -1,8 -3,4 24 13 48 26 N 0,0
11.02.2019 20:00:00 -1,8 -2,8 28 15 52 28 NNE 0,0
11.02.2019 19:00:00 -1,8 -3,1 28 15 52 28 N -
11.02.2019 18:00:00 -1,2 -3,7 26 14 59 32 N 0,0
11.02.2019 17:00:00 0,9 -5,6 21 11 52 28 N 0,0

tt = Température de l'air
td = dewpoint
ff = Vitesse du vent
fx = gusts
dd = Direction du vent
rr = Quantités de précipitations

stations d'obs. à proximité